Time;durP1;ratioP1;P1;durP2;ratioP2;P2;SDS_P1;SDS_P2;PMS_P1;PMS_P2;Temp;Humidity;BMP_temperature;BMP_pressure;BME280_temperature;BME280_humidity;BME280_pressure;Samples;Min_cycle;Max_cycle;Signal;HPM_P1;HPM_P2
2022/08/07 00:01:16;;;;;;;1.23;0.93;;;23.40;99.90;;;;;;4232187;28;20286;-78
2022/08/07 00:03:18;;;;;;;1.52;1.20;;;23.40;99.90;;;;;;4231142;28;20258;-79
2022/08/07 00:05:21;;;;;;;1.60;1.00;;;23.40;99.90;;;;;;4231540;28;20271;-79
2022/08/07 00:07:23;;;;;;;1.67;1.10;;;23.40;99.90;;;;;;4231171;28;20241;-78
2022/08/07 00:09:25;;;;;;;1.20;0.95;;;23.40;99.90;;;;;;4230839;28;20206;-78
2022/08/07 00:11:27;;;;;;;1.63;1.00;;;23.40;99.90;;;;;;4231041;28;20270;-79
2022/08/07 00:13:32;;;;;;;1.17;1.00;;;23.40;99.90;;;;;;4230649;28;20239;-79
2022/08/07 00:15:35;;;;;;;1.50;1.25;;;23.40;99.90;;;;;;4230990;28;20263;-78
2022/08/07 00:17:37;;;;;;;1.10;0.90;;;23.40;99.90;;;;;;4230718;28;20276;-78
2022/08/07 00:19:39;;;;;;;2.00;1.10;;;23.40;99.90;;;;;;4230476;28;20673;-78
2022/08/07 00:21:41;;;;;;;1.83;1.10;;;23.40;99.90;;;;;;4231448;28;20650;-78
2022/08/07 00:23:44;;;;;;;2.08;1.08;;;23.40;99.90;;;;;;4230653;28;20210;-78
2022/08/07 00:25:46;;;;;;;1.40;0.90;;;23.40;99.90;;;;;;4230807;28;20218;-78
2022/08/07 00:27:49;;;;;;;1.20;1.02;;;23.40;99.90;;;;;;4230602;28;20210;-78
2022/08/07 00:29:52;;;;;;;1.52;1.20;;;23.40;99.90;;;;;;4230909;28;20616;-79
2022/08/07 00:31:58;;;;;;;1.85;1.27;;;23.40;99.90;;;;;;4230767;28;20217;-79
2022/08/07 00:34:00;;;;;;;1.25;0.90;;;23.40;99.90;;;;;;4230740;28;20263;-78
2022/08/07 00:36:04;;;;;;;1.50;1.10;;;23.40;99.90;;;;;;4230237;28;20221;-78
2022/08/07 00:38:06;;;;;;;1.00;0.90;;;23.30;99.90;;;;;;4230108;28;20234;-78
2022/08/07 00:40:09;;;;;;;2.78;1.00;;;23.30;99.90;;;;;;4230630;28;20213;-78
2022/08/07 00:42:12;;;;;;;1.50;1.00;;;23.30;99.90;;;;;;4230346;28;20217;-78
2022/08/07 00:44:14;;;;;;;1.52;0.85;;;23.40;99.90;;;;;;4230115;28;20310;-78
2022/08/07 00:46:18;;;;;;;1.00;0.90;;;23.30;99.90;;;;;;4230730;28;20262;-78
2022/08/07 00:48:21;;;;;;;1.88;1.25;;;23.30;99.90;;;;;;4230650;28;20266;-78
2022/08/07 00:50:23;;;;;;;2.10;1.17;;;23.40;99.90;;;;;;4230136;28;20290;-78
2022/08/07 00:52:25;;;;;;;3.30;1.17;;;23.30;99.90;;;;;;4230708;28;20186;-78
2022/08/07 00:54:28;;;;;;;2.45;1.00;;;23.30;99.90;;;;;;4230318;28;20563;-78
2022/08/07 00:56:31;;;;;;;2.45;1.05;;;23.30;99.90;;;;;;4230348;28;20665;-78
2022/08/07 00:58:33;;;;;;;1.00;0.90;;;23.30;99.90;;;;;;4230150;28;20268;-78
2022/08/07 01:00:35;;;;;;;1.20;1.10;;;23.30;99.90;;;;;;4230578;28;20278;-79
2022/08/07 01:02:39;;;;;;;1.13;0.95;;;23.30;99.90;;;;;;4230322;28;20657;-78
2022/08/07 01:04:42;;;;;;;1.20;1.00;;;23.30;99.90;;;;;;4230126;28;20259;-78
2022/08/07 01:06:45;;;;;;;1.25;0.80;;;23.30;99.90;;;;;;4230281;28;20217;-78
2022/08/07 01:08:48;;;;;;;1.30;1.20;;;23.30;99.90;;;;;;4229870;28;20214;-79
2022/08/07 01:10:50;;;;;;;1.83;1.35;;;23.30;99.90;;;;;;4230067;28;20662;-78
2022/08/07 01:12:53;;;;;;;1.05;0.82;;;23.30;99.90;;;;;;4230409;28;20214;-78
2022/08/07 01:14:57;;;;;;;1.20;1.00;;;23.30;99.90;;;;;;4230048;28;20259;-78
2022/08/07 01:17:00;;;;;;;2.22;1.10;;;23.30;99.90;;;;;;4229962;28;20213;-78
2022/08/07 01:19:04;;;;;;;1.23;1.13;;;23.30;99.90;;;;;;4229871;28;20693;-78
2022/08/07 01:21:11;;;;;;;2.28;1.08;;;23.30;99.90;;;;;;4229764;28;20251;-78
2022/08/07 01:23:15;;;;;;;1.20;1.02;;;23.30;99.90;;;;;;4229943;28;20209;-78
2022/08/07 01:25:18;;;;;;;1.77;1.08;;;23.30;99.90;;;;;;4229757;28;20213;-78
2022/08/07 01:27:20;;;;;;;1.40;0.95;;;23.30;99.90;;;;;;4229838;28;20209;-78
2022/08/07 01:29:23;;;;;;;2.25;1.33;;;23.30;99.90;;;;;;4229989;28;20234;-78
2022/08/07 01:31:30;;;;;;;1.10;1.00;;;23.20;99.90;;;;;;4229953;28;20214;-78
2022/08/07 01:33:33;;;;;;;1.77;1.10;;;23.30;99.90;;;;;;4230427;28;20834;-78
2022/08/07 01:35:35;;;;;;;1.63;1.10;;;23.30;99.90;;;;;;4230009;28;20691;-78
2022/08/07 01:37:39;;;;;;;0.98;0.90;;;23.30;99.90;;;;;;4230028;28;20214;-78
2022/08/07 01:39:42;;;;;;;1.58;1.10;;;23.20;99.90;;;;;;4229549;28;20627;-78
2022/08/07 01:41:44;;;;;;;1.17;0.90;;;23.20;99.90;;;;;;4229961;28;20270;-78
2022/08/07 01:43:47;;;;;;;1.38;1.10;;;23.20;99.90;;;;;;4229236;28;20620;-78
2022/08/07 01:45:50;;;;;;;1.20;0.95;;;23.20;99.90;;;;;;4229865;28;20270;-78
2022/08/07 01:47:53;;;;;;;1.30;1.10;;;23.20;99.90;;;;;;4229992;28;20267;-78
2022/08/07 01:49:56;;;;;;;1.75;1.23;;;23.20;99.90;;;;;;4229381;28;20206;-78
2022/08/07 01:52:01;;;;;;;1.27;0.98;;;23.20;99.90;;;;;;4229778;28;20681;-78
2022/08/07 01:54:08;;;;;;;1.92;1.20;;;23.20;99.90;;;;;;4229730;28;20209;-78
2022/08/07 01:56:14;;;;;;;1.38;1.05;;;23.20;99.90;;;;;;4229711;28;20730;-78
2022/08/07 01:58:21;;;;;;;1.10;1.00;;;23.20;99.90;;;;;;4229787;28;20509;-78
2022/08/07 02:00:27;;;;;;;1.20;0.90;;;23.20;99.90;;;;;;4229611;28;20255;-78
2022/08/07 02:02:35;;;;;;;1.27;1.15;;;23.20;99.90;;;;;;4229606;28;20665;-78
2022/08/07 02:04:42;;;;;;;2.58;1.20;;;23.20;99.90;;;;;;4229879;28;20243;-78
2022/08/07 02:06:45;;;;;;;2.08;1.20;;;23.20;99.90;;;;;;4229944;28;20243;-78
2022/08/07 02:08:49;;;;;;;1.50;1.00;;;23.20;99.90;;;;;;4229811;28;20213;-78
2022/08/07 02:10:57;;;;;;;2.00;1.20;;;23.20;99.90;;;;;;4229367;28;20218;-78
2022/08/07 02:13:02;;;;;;;1.02;0.90;;;23.20;99.90;;;;;;4229707;28;20221;-78
2022/08/07 02:15:07;;;;;;;1.42;1.00;;;23.20;99.90;;;;;;4229692;28;20263;-78
2022/08/07 02:17:12;;;;;;;1.20;1.10;;;23.20;99.90;;;;;;4229797;28;20246;-78
2022/08/07 02:19:16;;;;;;;1.63;1.20;;;23.20;99.90;;;;;;4229224;28;20241;-78
2022/08/07 02:21:20;;;;;;;1.98;1.13;;;23.20;99.90;;;;;;4230682;28;20221;-78
2022/08/07 02:23:25;;;;;;;1.10;1.00;;;23.20;99.90;;;;;;4232620;28;20619;-78
2022/08/07 02:25:29;;;;;;;1.30;1.00;;;23.10;99.90;;;;;;4232575;28;20214;-78
2022/08/07 02:27:35;;;;;;;1.58;1.08;;;23.10;99.90;;;;;;4232464;28;20551;-78
2022/08/07 02:29:38;;;;;;;1.13;1.02;;;23.20;99.90;;;;;;4232732;28;20214;-78
2022/08/07 02:31:41;;;;;;;1.38;1.02;;;23.20;99.90;;;;;;4232540;28;20218;-79
2022/08/07 02:33:44;;;;;;;1.48;1.05;;;23.10;99.90;;;;;;4233005;28;20217;-78
2022/08/07 02:35:49;;;;;;;1.42;1.00;;;23.20;99.90;;;;;;4232415;28;20255;-78
2022/08/07 02:37:53;;;;;;;1.50;1.13;;;23.10;99.90;;;;;;4232358;28;20559;-78
2022/08/07 02:39:58;;;;;;;0.80;0.80;;;23.10;99.90;;;;;;4232805;28;20774;-78
2022/08/07 02:42:02;;;;;;;2.58;1.38;;;23.10;99.90;;;;;;4232703;28;20213;-78
2022/08/07 02:44:06;;;;;;;1.15;0.90;;;23.10;99.90;;;;;;4232299;28;20286;-78
2022/08/07 02:46:10;;;;;;;1.88;1.20;;;23.10;99.90;;;;;;4232567;28;20726;-79
2022/08/07 02:48:13;;;;;;;1.55;1.10;;;23.10;99.90;;;;;;4232318;28;20270;-79
2022/08/07 02:50:16;;;;;;;1.67;1.13;;;23.10;99.90;;;;;;4232070;28;20254;-78
2022/08/07 02:52:23;;;;;;;0.95;0.90;;;23.10;99.90;;;;;;4232326;28;20638;-78
2022/08/07 02:54:28;;;;;;;1.30;0.90;;;23.10;99.90;;;;;;4231999;28;20263;-80
2022/08/07 02:56:32;;;;;;;1.70;1.20;;;23.10;99.90;;;;;;4232479;28;20218;-81
2022/08/07 02:58:36;;;;;;;1.27;1.17;;;23.10;99.90;;;;;;4232336;28;20613;-81
2022/08/07 03:00:42;;;;;;;1.60;1.02;;;23.10;99.90;;;;;;4232463;28;20383;-79
2022/08/07 03:02:47;;;;;;;1.13;0.85;;;23.10;99.90;;;;;;4232182;28;20252;-78
2022/08/07 03:04:53;;;;;;;1.30;0.90;;;23.00;99.90;;;;;;4232420;28;20206;-78
2022/08/07 03:06:55;;;;;;;1.65;1.10;;;23.10;99.90;;;;;;4232293;28;20205;-79
2022/08/07 03:08:58;;;;;;;1.73;1.00;;;23.10;99.90;;;;;;4231913;28;20626;-78
2022/08/07 03:11:02;;;;;;;2.03;1.23;;;23.10;99.90;;;;;;4231926;28;20670;-78
2022/08/07 03:13:05;;;;;;;1.20;1.10;;;23.10;99.90;;;;;;4231855;28;20619;-78
2022/08/07 03:15:10;;;;;;;1.08;1.00;;;23.10;99.90;;;;;;4231919;28;20263;-78
2022/08/07 03:17:14;;;;;;;1.88;1.20;;;23.10;99.90;;;;;;4231506;28;20221;-78
2022/08/07 03:19:17;;;;;;;0.95;0.80;;;23.10;99.90;;;;;;4231941;28;20669;-81
2022/08/07 03:21:19;;;;;;;1.20;1.02;;;23.00;99.90;;;;;;4232467;28;20225;-81
2022/08/07 03:23:23;;;;;;;1.02;0.90;;;23.10;99.90;;;;;;4231667;28;20271;-80
2022/08/07 03:25:27;;;;;;;1.20;1.00;;;23.10;99.90;;;;;;4231987;28;20650;-81
2022/08/07 03:27:30;;;;;;;1.38;1.00;;;23.10;99.90;;;;;;4231878;28;20271;-81
2022/08/07 03:29:37;;;;;;;2.35;0.95;;;23.00;99.90;;;;;;4231508;28;20210;-81
2022/08/07 03:31:41;;;;;;;2.38;1.40;;;23.00;99.90;;;;;;4214796;28;20218;-81
2022/08/07 03:33:48;;;;;;;1.77;1.23;;;23.10;99.90;;;;;;4214738;28;20607;-81
2022/08/07 03:35:50;;;;;;;1.38;1.08;;;23.10;99.90;;;;;;4215072;28;20210;-80
2022/08/07 03:37:57;;;;;;;1.10;1.00;;;23.00;99.90;;;;;;4214199;28;20271;-80
2022/08/07 03:40:00;;;;;;;2.13;1.00;;;23.00;99.90;;;;;;4214697;28;20238;-81
2022/08/07 03:42:04;;;;;;;1.80;0.85;;;23.00;99.90;;;;;;4214616;28;20214;-81
2022/08/07 03:44:07;;;;;;;1.50;1.15;;;23.00;99.90;;;;;;4214477;28;20733;-80
2022/08/07 03:46:09;;;;;;;1.88;1.08;;;23.00;99.90;;;;;;4214561;28;20214;-81
2022/08/07 03:48:11;;;;;;;1.67;1.17;;;23.00;99.90;;;;;;4214539;28;20207;-81
2022/08/07 03:50:16;;;;;;;1.88;1.23;;;23.00;99.90;;;;;;4214627;28;20603;-81
2022/08/07 03:52:20;;;;;;;2.40;1.40;;;23.00;99.90;;;;;;4214756;28;20256;-80
2022/08/07 03:54:22;;;;;;;1.77;1.02;;;23.00;99.90;;;;;;4214070;28;20622;-81
2022/08/07 03:56:26;;;;;;;1.25;0.98;;;23.00;99.90;;;;;;4214562;28;20275;-81
2022/08/07 03:58:29;;;;;;;1.35;1.20;;;23.00;99.90;;;;;;4214801;28;20214;-80
2022/08/07 04:00:32;;;;;;;1.50;1.20;;;23.00;99.90;;;;;;4214421;28;20234;-80
2022/08/07 04:02:34;;;;;;;1.20;1.10;;;23.00;99.90;;;;;;4214405;28;20219;-81
2022/08/07 04:04:37;;;;;;;1.25;1.00;;;23.00;99.90;;;;;;4214285;28;20210;-81
2022/08/07 04:06:42;;;;;;;1.27;1.10;;;23.00;99.90;;;;;;4214464;28;20206;-80
2022/08/07 04:08:46;;;;;;;1.40;0.90;;;23.00;99.90;;;;;;4214667;28;20214;-81
2022/08/07 04:10:49;;;;;;;1.52;1.15;;;23.00;99.90;;;;;;4214346;28;20259;-81
2022/08/07 04:12:51;;;;;;;1.60;1.20;;;23.00;99.90;;;;;;4214484;28;20275;-81
2022/08/07 04:14:55;;;;;;;1.42;1.05;;;23.00;99.90;;;;;;4214432;28;20218;-81
2022/08/07 04:16:57;;;;;;;1.20;1.10;;;22.90;99.90;;;;;;4214342;28;20215;-81
2022/08/07 04:19:00;;;;;;;1.90;1.10;;;23.00;99.90;;;;;;4214310;28;20259;-80
2022/08/07 04:21:03;;;;;;;1.48;1.13;;;22.90;99.90;;;;;;4213922;28;20283;-81
2022/08/07 04:23:07;;;;;;;1.20;1.10;;;22.90;99.90;;;;;;4214202;28;20268;-80
2022/08/07 04:25:10;;;;;;;1.67;1.23;;;22.90;99.90;;;;;;4214002;28;20609;-81
2022/08/07 04:27:12;;;;;;;2.78;1.20;;;22.90;99.90;;;;;;4214021;28;20210;-80
2022/08/07 04:29:15;;;;;;;1.33;1.02;;;22.90;99.90;;;;;;4214612;28;20287;-80
2022/08/07 04:31:18;;;;;;;0.98;0.90;;;22.90;99.90;;;;;;4228084;28;20206;-80
2022/08/07 04:33:20;;;;;;;2.33;1.30;;;22.90;99.90;;;;;;4230911;28;20723;-80
2022/08/07 04:35:23;;;;;;;1.92;1.10;;;22.90;99.90;;;;;;4230866;28;20218;-81
2022/08/07 04:37:25;;;;;;;1.83;1.05;;;22.90;99.90;;;;;;4230708;28;20267;-81
2022/08/07 04:39:29;;;;;;;1.17;1.08;;;22.90;99.90;;;;;;4230902;28;20214;-80
2022/08/07 04:41:31;;;;;;;1.50;1.00;;;22.90;99.90;;;;;;4230544;28;20241;-80
2022/08/07 04:43:37;;;;;;;1.55;1.10;;;22.90;99.90;;;;;;4230054;28;20217;-80
2022/08/07 04:45:45;;;;;;;1.65;1.35;;;22.90;99.90;;;;;;4230593;28;20222;-80
2022/08/07 04:47:55;;;;;;;2.00;1.00;;;22.90;99.90;;;;;;4230888;28;20235;-81
2022/08/07 04:50:05;;;;;;;1.85;1.08;;;22.90;99.90;;;;;;4230224;28;20263;-80
2022/08/07 04:52:18;;;;;;;2.10;1.25;;;22.90;99.90;;;;;;4230098;28;20213;-79
2022/08/07 04:54:30;;;;;;;1.30;1.20;;;22.90;99.90;;;;;;4230208;28;20254;-78
2022/08/07 04:56:40;;;;;;;1.27;1.02;;;22.90;99.90;;;;;;4230201;28;20246;-78
2022/08/07 04:58:51;;;;;;;1.20;1.00;;;22.90;99.90;;;;;;4230588;28;20218;-78
2022/08/07 05:00:57;;;;;;;1.55;1.13;;;22.90;99.90;;;;;;4229801;28;20263;-79
2022/08/07 05:03:08;;;;;;;1.10;1.00;;;22.90;99.90;;;;;;4230380;28;20213;-78
2022/08/07 05:05:17;;;;;;;1.20;1.02;;;22.90;99.90;;;;;;4230230;28;20209;-79
2022/08/07 05:07:23;;;;;;;1.23;1.00;;;22.90;99.90;;;;;;4230075;28;20225;-78
2022/08/07 05:09:30;;;;;;;1.83;1.00;;;22.90;99.90;;;;;;4230426;28;20621;-78
2022/08/07 05:11:35;;;;;;;1.30;1.10;;;22.90;99.90;;;;;;4230372;28;20688;-78
2022/08/07 05:13:45;;;;;;;1.88;1.13;;;22.90;99.90;;;;;;4230110;28;20213;-78
2022/08/07 05:15:52;;;;;;;1.60;1.30;;;22.90;99.90;;;;;;4230135;28;20217;-79
2022/08/07 05:17:59;;;;;;;1.40;1.10;;;22.90;99.90;;;;;;4230415;28;20217;-78
2022/08/07 05:20:02;;;;;;;1.55;1.45;;;22.90;99.90;;;;;;4229869;28;20739;-79
2022/08/07 05:22:08;;;;;;;2.33;1.20;;;22.80;99.90;;;;;;4230074;28;20214;-78
2022/08/07 05:24:13;;;;;;;1.23;1.10;;;22.90;99.90;;;;;;4230298;28;20614;-79
2022/08/07 05:26:18;;;;;;;2.08;1.20;;;22.90;99.90;;;;;;4230102;28;20637;-78
2022/08/07 05:28:24;;;;;;;1.70;1.23;;;22.80;99.90;;;;;;4230222;28;20213;-79
2022/08/07 05:30:28;;;;;;;1.50;1.10;;;22.90;99.90;;;;;;4230148;28;20263;-80
2022/08/07 05:32:31;;;;;;;1.42;1.15;;;22.90;99.90;;;;;;4230080;28;20271;-81
2022/08/07 05:34:35;;;;;;;1.15;1.05;;;22.80;99.90;;;;;;4229671;28;20267;-80
2022/08/07 05:36:40;;;;;;;1.27;1.17;;;22.90;99.90;;;;;;4229965;28;20821;-80
2022/08/07 05:38:44;;;;;;;2.55;1.10;;;22.80;99.90;;;;;;4229856;28;20222;-81
2022/08/07 05:40:46;;;;;;;1.52;1.10;;;22.80;99.90;;;;;;4229782;28;20265;-80
2022/08/07 05:42:49;;;;;;;3.08;1.25;;;22.80;99.90;;;;;;4229907;28;20254;-80
2022/08/07 05:44:55;;;;;;;1.98;1.33;;;22.90;99.90;;;;;;4230020;28;20561;-81
2022/08/07 05:46:57;;;;;;;1.55;1.15;;;22.90;99.90;;;;;;4229814;28;20642;-80
2022/08/07 05:49:00;;;;;;;2.22;1.17;;;22.80;99.90;;;;;;4230361;28;20654;-80
2022/08/07 05:51:03;;;;;;;1.52;1.20;;;22.80;99.90;;;;;;4230246;28;20209;-80
2022/08/07 05:53:06;;;;;;;2.35;1.13;;;22.80;99.90;;;;;;4229633;28;20221;-80
2022/08/07 05:55:09;;;;;;;1.65;1.40;;;22.90;99.90;;;;;;4231047;28;20577;-80
2022/08/07 05:57:12;;;;;;;1.60;1.10;;;22.80;99.90;;;;;;4233486;28;20194;-80
2022/08/07 05:59:18;;;;;;;2.05;1.10;;;22.90;99.90;;;;;;4233448;28;20605;-81
2022/08/07 06:01:23;;;;;;;1.38;1.20;;;22.90;99.90;;;;;;4232892;28;20221;-80
2022/08/07 06:03:27;;;;;;;1.58;1.27;;;22.80;99.90;;;;;;4233613;28;20569;-80
2022/08/07 06:05:30;;;;;;;1.25;1.08;;;22.80;99.90;;;;;;4233181;28;20240;-80
2022/08/07 06:07:33;;;;;;;1.27;1.10;;;22.80;99.90;;;;;;4233117;28;20282;-81
2022/08/07 06:09:36;;;;;;;1.20;1.00;;;22.80;99.90;;;;;;4233323;28;20614;-81
2022/08/07 06:11:39;;;;;;;2.40;1.33;;;22.80;99.90;;;;;;4232944;28;20210;-80
2022/08/07 06:13:42;;;;;;;2.20;1.20;;;22.90;99.90;;;;;;4233393;28;20460;-80
2022/08/07 06:15:45;;;;;;;1.77;1.48;;;22.80;99.90;;;;;;4233082;28;20270;-81
2022/08/07 06:17:49;;;;;;;1.45;1.15;;;22.80;99.90;;;;;;4232879;28;20210;-80
2022/08/07 06:19:52;;;;;;;1.63;1.30;;;22.80;99.90;;;;;;4233124;28;20270;-80
2022/08/07 06:21:56;;;;;;;1.38;1.10;;;22.80;99.90;;;;;;4232779;28;20613;-80
2022/08/07 06:23:58;;;;;;;1.50;1.40;;;22.80;99.90;;;;;;4232628;28;20218;-80
2022/08/07 06:26:01;;;;;;;2.13;1.27;;;22.80;99.90;;;;;;4232762;28;20282;-80
2022/08/07 06:28:05;;;;;;;1.70;1.40;;;22.80;99.90;;;;;;4232560;28;20214;-81
2022/08/07 06:30:08;;;;;;;1.15;1.00;;;22.80;99.90;;;;;;4232893;28;20231;-80
2022/08/07 06:32:11;;;;;;;1.35;1.13;;;22.80;99.90;;;;;;4232399;28;20210;-80
2022/08/07 06:34:14;;;;;;;1.20;1.05;;;22.80;99.90;;;;;;4233067;28;20225;-81
2022/08/07 06:36:17;;;;;;;1.30;1.20;;;22.80;99.90;;;;;;4233001;28;20217;-81
2022/08/07 06:38:19;;;;;;;1.42;1.25;;;22.80;99.90;;;;;;4232513;28;20263;-81
2022/08/07 06:40:21;;;;;;;1.92;1.30;;;22.80;99.90;;;;;;4232955;28;20213;-81
2022/08/07 06:42:26;;;;;;;1.25;1.10;;;22.80;99.90;;;;;;4232350;28;20245;-81
2022/08/07 06:44:30;;;;;;;1.52;1.17;;;22.80;99.90;;;;;;4232396;28;20296;-80
2022/08/07 06:46:32;;;;;;;1.38;1.25;;;22.90;99.90;;;;;;4232517;28;20263;-81
2022/08/07 06:48:35;;;;;;;1.48;1.23;;;22.80;99.90;;;;;;4232587;28;20217;-80
2022/08/07 06:50:41;;;;;;;1.80;1.38;;;22.90;99.90;;;;;;4232365;28;20221;-81
2022/08/07 06:52:47;;;;;;;1.70;1.25;;;22.80;99.90;;;;;;4232783;28;20271;-81
2022/08/07 06:54:51;;;;;;;1.85;1.33;;;22.80;99.90;;;;;;4232807;28;20214;-81
2022/08/07 06:56:54;;;;;;;1.30;1.20;;;22.80;99.90;;;;;;4232429;28;20218;-81
2022/08/07 06:58:57;;;;;;;2.33;1.40;;;22.90;99.90;;;;;;4232256;28;20275;-81
2022/08/07 07:01:00;;;;;;;1.75;1.40;;;22.90;99.90;;;;;;4232003;28;20278;-81
2022/08/07 07:03:03;;;;;;;2.15;1.02;;;22.90;99.90;;;;;;4232186;28;20217;-81
2022/08/07 07:05:06;;;;;;;1.10;1.00;;;22.90;99.90;;;;;;4232246;28;20217;-81
2022/08/07 07:07:10;;;;;;;1.38;1.10;;;22.80;99.90;;;;;;4231743;28;20661;-80
2022/08/07 07:09:20;;;;;;;1.33;1.23;;;22.90;99.90;;;;;;4232173;28;20313;-81
2022/08/07 07:11:23;;;;;;;1.73;1.15;;;22.90;99.90;;;;;;4232095;28;20221;-81
2022/08/07 07:13:33;;;;;;;1.88;1.30;;;22.90;99.90;;;;;;4232261;28;20247;-81
2022/08/07 07:15:42;;;;;;;1.40;1.23;;;22.90;99.90;;;;;;4232114;28;20593;-81
2022/08/07 07:17:52;;;;;;;2.20;1.25;;;22.80;99.90;;;;;;4233506;28;20219;-82
2022/08/07 07:19:59;;;;;;;1.38;1.15;;;22.90;99.90;;;;;;4233287;28;20213;-81
2022/08/07 07:22:02;;;;;;;1.90;1.35;;;22.90;99.90;;;;;;4232639;28;20287;-80
2022/08/07 07:24:09;;;;;;;1.30;1.15;;;22.90;99.90;;;;;;4231946;28;20650;-80
2022/08/07 07:26:15;;;;;;;1.33;1.23;;;22.90;99.90;;;;;;4231798;28;20209;-80
2022/08/07 07:28:22;;;;;;;2.42;1.33;;;22.90;99.90;;;;;;4231770;28;20595;-80
2022/08/07 07:30:30;;;;;;;1.63;1.30;;;22.90;99.90;;;;;;4231923;28;20586;-80
2022/08/07 07:32:37;;;;;;;1.30;1.20;;;22.80;99.90;;;;;;4231701;28;20221;-81
2022/08/07 07:34:45;;;;;;;2.13;1.20;;;22.90;99.90;;;;;;4232109;28;20214;-81
2022/08/07 07:36:49;;;;;;;1.83;1.20;;;22.90;99.90;;;;;;4231947;28;20212;-81
2022/08/07 07:38:51;;;;;;;2.35;1.40;;;22.90;99.90;;;;;;4232784;28;20209;-81
2022/08/07 07:40:58;;;;;;;1.45;1.20;;;22.90;99.90;;;;;;4231854;28;20222;-82
2022/08/07 07:43:04;;;;;;;1.40;1.17;;;22.90;99.90;;;;;;4232782;28;20279;-80
2022/08/07 07:45:08;;;;;;;1.30;1.20;;;22.90;99.90;;;;;;4231034;28;20282;-79
2022/08/07 07:47:14;;;;;;;2.10;1.20;;;22.90;99.90;;;;;;4231792;28;20606;-79
2022/08/07 07:49:19;;;;;;;2.35;1.50;;;22.90;99.90;;;;;;4231347;28;20270;-79
2022/08/07 07:51:22;;;;;;;1.20;1.10;;;22.90;99.90;;;;;;4231375;28;20214;-81
2022/08/07 07:53:25;;;;;;;1.60;1.40;;;22.90;99.90;;;;;;4231557;28;20255;-81
2022/08/07 07:55:29;;;;;;;1.88;1.20;;;22.90;99.90;;;;;;4231098;28;20711;-81
2022/08/07 07:57:34;;;;;;;1.73;1.40;;;22.90;99.90;;;;;;4231354;28;20669;-81
2022/08/07 07:59:40;;;;;;;1.55;1.30;;;22.90;99.90;;;;;;4231669;28;20270;-81
2022/08/07 08:01:45;;;;;;;2.30;1.50;;;22.90;99.90;;;;;;4231281;28;20646;-81
2022/08/07 08:03:50;;;;;;;2.58;1.40;;;22.90;99.90;;;;;;4231695;28;20222;-81
2022/08/07 08:05:53;;;;;;;1.45;1.27;;;22.90;99.90;;;;;;4231503;28;20214;-81
2022/08/07 08:07:56;;;;;;;2.15;1.50;;;22.90;99.90;;;;;;4231732;28;20274;-81
2022/08/07 08:09:59;;;;;;;1.42;1.20;;;22.90;99.90;;;;;;4231231;28;20262;-81
2022/08/07 08:12:03;;;;;;;1.50;1.40;;;22.90;99.90;;;;;;4231066;28;20555;-81
2022/08/07 08:14:06;;;;;;;2.03;1.30;;;22.90;99.90;;;;;;4231108;28;20267;-81
2022/08/07 08:16:12;;;;;;;1.40;1.30;;;22.90;99.90;;;;;;4231078;28;20263;-81
2022/08/07 08:18:16;;;;;;;1.40;1.30;;;22.90;99.90;;;;;;4230770;28;20210;-81
2022/08/07 08:20:19;;;;;;;1.20;1.08;;;22.90;99.90;;;;;;4230719;28;20235;-81
2022/08/07 08:27:08;;;;;;;2.90;1.23;;;22.90;99.90;;;;;;4231371;28;20190;-81
2022/08/07 08:29:15;;;;;;;1.35;1.20;;;22.90;99.90;;;;;;4231007;28;20214;-81
2022/08/07 08:31:24;;;;;;;2.10;1.33;;;22.90;99.90;;;;;;4230856;28;20254;-81
2022/08/07 08:33:31;;;;;;;1.42;1.20;;;22.90;99.90;;;;;;4231119;28;20659;-81
2022/08/07 08:35:35;;;;;;;2.78;1.40;;;22.90;99.90;;;;;;4230560;28;20723;-81
2022/08/07 08:37:38;;;;;;;1.63;1.30;;;22.90;99.90;;;;;;4231021;28;20210;-81
2022/08/07 08:39:42;;;;;;;1.65;1.40;;;23.00;99.90;;;;;;4230540;28;20662;-81
2022/08/07 08:41:50;;;;;;;1.40;1.30;;;22.90;99.90;;;;;;4230656;28;20263;-81
2022/08/07 08:44:02;;;;;;;2.00;1.45;;;22.90;99.90;;;;;;4230186;28;20308;-80
2022/08/07 08:46:12;;;;;;;1.48;1.33;;;22.90;99.90;;;;;;4230508;28;20254;-81
2022/08/07 08:48:22;;;;;;;1.95;1.48;;;22.90;99.90;;;;;;4230587;28;20298;-81
2022/08/07 08:50:31;;;;;;;1.33;1.23;;;22.90;99.90;;;;;;4230542;28;20274;-81
2022/08/07 08:52:38;;;;;;;1.33;1.15;;;23.00;99.90;;;;;;4230223;28;20278;-78
2022/08/07 08:54:47;;;;;;;2.40;1.40;;;23.00;99.90;;;;;;4230399;28;20217;-79
2022/08/07 08:56:52;;;;;;;3.67;1.70;;;23.00;99.90;;;;;;4230445;28;20217;-78
2022/08/07 08:58:59;;;;;;;1.60;1.45;;;23.00;99.90;;;;;;4230378;28;20267;-79
2022/08/07 09:01:08;;;;;;;1.55;1.30;;;23.00;99.90;;;;;;4230276;28;20269;-78
2022/08/07 09:03:23;;;;;;;1.70;1.30;;;23.00;99.90;;;;;;4230302;28;20685;-79
2022/08/07 09:05:34;;;;;;;1.73;1.20;;;23.10;99.90;;;;;;4230086;28;20222;-79
2022/08/07 09:07:43;;;;;;;2.22;1.48;;;23.00;99.90;;;;;;4229927;28;20744;-79
2022/08/07 09:09:55;;;;;;;1.80;1.27;;;23.10;99.90;;;;;;4230217;28;20626;-79
2022/08/07 09:12:09;;;;;;;2.60;1.55;;;23.10;99.90;;;;;;4230108;28;20730;-79
2022/08/07 09:14:14;;;;;;;2.00;1.25;;;23.10;99.90;;;;;;4229972;28;20726;-79
2022/08/07 09:16:25;;;;;;;1.58;1.27;;;23.10;99.90;;;;;;4230307;28;20217;-79
2022/08/07 09:18:46;;;;;;;1.38;1.27;;;23.10;99.90;;;;;;4229893;28;20217;-79
2022/08/07 09:20:57;;;;;;;1.30;1.20;;;23.10;99.90;;;;;;4230071;28;20271;-79
2022/08/07 09:23:09;;;;;;;1.83;1.45;;;23.10;99.90;;;;;;4230121;28;20222;-80
2022/08/07 09:25:16;;;;;;;1.30;1.20;;;23.00;99.90;;;;;;4230050;28;20217;-81
2022/08/07 09:27:29;;;;;;;1.42;1.33;;;23.10;99.90;;;;;;4230143;28;20213;-81
2022/08/07 09:29:45;;;;;;;1.98;1.50;;;23.10;99.90;;;;;;4229992;28;20213;-81
2022/08/07 09:31:59;;;;;;;1.33;1.10;;;23.10;99.90;;;;;;4213250;28;20213;-81
2022/08/07 09:34:10;;;;;;;1.77;1.50;;;23.10;99.90;;;;;;4213199;28;20210;-81
2022/08/07 09:36:20;;;;;;;2.30;1.55;;;23.10;99.90;;;;;;4213452;28;20629;-81
2022/08/07 09:38:36;;;;;;;1.60;1.13;;;23.10;99.90;;;;;;4213270;28;20214;-81
2022/08/07 09:40:57;;;;;;;1.55;1.38;;;23.10;99.90;;;;;;4213219;28;20206;-81
2022/08/07 09:43:07;;;;;;;1.60;1.27;;;23.10;99.90;;;;;;4213273;28;20238;-81
2022/08/07 09:45:15;;;;;;;1.30;1.20;;;23.20;99.90;;;;;;4212707;28;20283;-81
2022/08/07 09:47:37;;;;;;;1.60;1.50;;;23.10;99.90;;;;;;4213286;28;20677;-81
2022/08/07 09:49:59;;;;;;;2.55;1.40;;;23.10;99.90;;;;;;4213305;28;20210;-81
2022/08/07 09:52:08;;;;;;;1.45;1.30;;;23.20;99.90;;;;;;4213371;28;20264;-81
2022/08/07 09:54:17;;;;;;;1.45;1.33;;;23.10;99.90;;;;;;4212640;28;20214;-81
2022/08/07 09:56:41;;;;;;;1.83;1.52;;;23.20;99.90;;;;;;4212948;28;20272;-81
2022/08/07 09:59:04;;;;;;;2.28;1.30;;;23.20;99.90;;;;;;4213108;28;20263;-81
2022/08/07 10:01:27;;;;;;;1.90;1.20;;;23.20;99.90;;;;;;4213067;28;20320;-79
2022/08/07 10:03:49;;;;;;;2.10;1.52;;;23.20;99.90;;;;;;4213350;28;20280;-79
2022/08/07 10:06:16;;;;;;;1.40;1.30;;;23.20;99.90;;;;;;4213021;28;20623;-79
2022/08/07 10:09:00;;;;;;;1.42;1.25;;;23.20;99.90;;;;;;4213305;28;20231;-79
2022/08/07 10:11:09;;;;;;;1.60;1.30;;;23.20;99.90;;;;;;4183264;28;20728;-77
2022/08/07 10:13:26;;;;;;;1.45;1.30;;;23.20;99.90;;;;;;4213324;28;20206;-79
2022/08/07 10:15:46;;;;;;;1.50;1.40;;;23.20;99.90;;;;;;4213148;28;20323;-79
2022/08/07 10:18:05;;;;;;;1.65;1.55;;;23.20;99.90;;;;;;4212816;28;20297;-79
2022/08/07 10:20:18;;;;;;;1.50;1.40;;;23.20;99.90;;;;;;4212452;28;20622;-79
2022/08/07 10:22:45;;;;;;;1.30;1.20;;;23.20;99.90;;;;;;4212917;28;20211;-79
2022/08/07 10:25:03;;;;;;;1.60;1.50;;;23.20;99.90;;;;;;4212471;28;20256;-77
2022/08/07 10:27:26;;;;;;;1.50;1.35;;;23.30;99.90;;;;;;4212647;28;20223;-79
2022/08/07 10:30:02;;;;;;;1.48;1.38;;;23.20;99.90;;;;;;4212619;28;20334;-77
2022/08/07 10:32:18;;;;;;;1.55;1.45;;;23.30;99.90;;;;;;4199918;28;20610;-79
2022/08/07 10:34:36;;;;;;;1.83;1.58;;;23.30;99.90;;;;;;4212643;28;20210;-79
2022/08/07 10:36:51;;;;;;;1.63;1.38;;;23.30;99.90;;;;;;4212673;28;20275;-79
2022/08/07 10:38:58;;;;;;;1.40;1.30;;;23.30;99.90;;;;;;4212979;28;20655;-79
2022/08/07 10:41:09;;;;;;;1.33;1.23;;;23.30;99.90;;;;;;4212632;28;20267;-79
2022/08/07 10:43:17;;;;;;;1.58;1.48;;;23.30;99.90;;;;;;4215000;28;20271;-79
2022/08/07 10:45:25;;;;;;;2.45;1.50;;;23.30;99.90;;;;;;4215285;28;20643;-80
2022/08/07 10:47:40;;;;;;;1.85;1.40;;;23.30;99.90;;;;;;4215401;28;20267;-79
2022/08/07 10:49:50;;;;;;;2.17;1.20;;;23.40;99.90;;;;;;4215662;28;20572;-80
2022/08/07 10:51:58;;;;;;;1.80;1.70;;;23.40;99.90;;;;;;4215804;28;20214;-80
2022/08/07 10:54:11;;;;;;;1.83;1.50;;;23.40;99.90;;;;;;4215229;28;20210;-80
2022/08/07 10:56:23;;;;;;;1.48;1.23;;;23.40;99.90;;;;;;4215319;28;20267;-80
2022/08/07 10:58:43;;;;;;;2.35;1.20;;;23.40;99.90;;;;;;4215532;28;20263;-80
2022/08/07 11:00:55;;;;;;;1.70;1.23;;;23.40;99.90;;;;;;4214869;28;20265;-80
2022/08/07 11:03:05;;;;;;;1.35;1.25;;;23.40;99.90;;;;;;4215450;28;20259;-80